首页
METAR-TAF:

METAR-TAF

机场 :

Campbeltown, 苏格兰

纬度: 55-26-14N, 经度: 005-41-11W, 海拔: 13米

当前天气观测

该预报发布于29分钟前的18:20 UTC
风速23节,风向西转西北
温度 5°C
湿度 81%
气压 1006 hPa
能见度10公里或以上
少量云层高于1200英尺, 积雨云.
附近有阵雨

METAR: EGEC 181820Z 29023KT 9999 VCSH FEW012CB 05/02 Q1006

时间: 18:49 (18:49 UTC)

预报

该预报发布于4小时和51分钟前的13:58 UTC
预报有效从18日的 15点(UTC)到 18日的 18点(UTC)
风速22节,风向西南
能见度10公里或以上
散云层高于2000英尺
短暂存在
从 18日的 15点(UTC)到 18日的 18点(UTC)
风速25节,风向西转西南,有时为35节阵风
能見度: 6000
多云层高于1200英尺, 积雨云.
阵雨
几率 30% :
短暂存在
从 18日的 15点(UTC)到 18日的 18点(UTC)
能見度: 3000
大阵雨, 小冰雹或雪球

TAF: EGEC 181358Z 1815/1818 23022KT 9999 SCT020 TEMPO 1815/1818 25025G35KT 6000 SHRA BKN012CB PROB30 TEMPO 1815/1818 3000 +SHRAGS

超过4000个机场的气象观测和天气预报(METAR&TAF报告)。

可查询的气象台以黄色和红色小点在地图上表示。

将鼠标移到小点上方,可查看气象台名称。

然后点击查看天气观测和预报。

如需切换地图:点击带黑十字的绿色按钮放大地图;点击带横线的绿色按钮缩小地图;或者点击绿色箭头查看邻近地区的地图。


METAR-TAF: